Time;durP1;ratioP1;P1;durP2;ratioP2;P2;SDS_P1;SDS_P2;PMS_P1;PMS_P2;Temp;Humidity;BMP_temperature;BMP_pressure;BME280_temperature;BME280_humidity;BME280_pressure;Samples;Min_cycle;Max_cycle;Signal;HPM_P1;HPM_P2
2023/06/05 00:01:35;;;;;;;7.28;3.60;;;;;;;13.39;79.77;102124.09;5028552;28;20494;-78
2023/06/05 00:04:01;;;;;;;5.90;3.70;;;;;;;13.38;79.41;102128.53;5008114;28;20017;-74
2023/06/05 00:06:26;;;;;;;6.80;3.58;;;;;;;13.30;80.20;102125.56;5000174;28;20034;-75
2023/06/05 00:08:52;;;;;;;8.70;3.70;;;;;;;13.30;79.98;102120.28;4990218;28;20029;-75
2023/06/05 00:11:17;;;;;;;7.10;3.67;;;;;;;13.27;80.29;102123.13;5010086;28;20356;-75
2023/06/05 00:13:43;;;;;;;8.20;3.58;;;;;;;13.22;80.50;102127.00;5009585;28;20068;-75
2023/06/05 00:16:08;;;;;;;8.13;3.90;;;;;;;13.12;81.27;102126.69;5009060;28;20525;-78
2023/06/05 00:18:33;;;;;;;7.97;3.95;;;;;;;13.12;81.15;102129.34;5009476;28;20044;-74
2023/06/05 00:21:00;;;;;;;8.77;3.92;;;;;;;13.09;81.36;102137.47;5006716;28;20022;-73
2023/06/05 00:23:25;;;;;;;7.05;3.97;;;;;;;13.02;81.41;102130.88;5008208;28;20030;-73
2023/06/05 00:25:50;;;;;;;9.30;3.83;;;;;;;12.98;81.63;102124.94;5017631;28;20441;-76
2023/06/05 00:28:16;;;;;;;8.52;3.90;;;;;;;13.00;81.50;102128.34;5008539;28;20368;-75
2023/06/05 00:30:41;;;;;;;8.88;4.13;;;;;;;12.92;82.26;102125.34;5009902;28;20433;-75
2023/06/05 00:33:06;;;;;;;9.10;3.72;;;;;;;12.89;82.23;102122.91;5009937;28;20471;-79
2023/06/05 00:35:32;;;;;;;7.68;3.72;;;;;;;12.91;82.38;102128.06;5008877;28;20033;-74
2023/06/05 00:37:57;;;;;;;7.53;4.18;;;;;;;12.88;82.33;102121.19;5008382;28;20109;-79
2023/06/05 00:40:22;;;;;;;6.90;3.65;;;;;;;12.89;82.20;102122.03;5003471;28;20072;-78
2023/06/05 00:42:48;;;;;;;8.15;4.07;;;;;;;12.82;82.17;102119.78;5003136;28;20076;-75
2023/06/05 00:45:13;;;;;;;8.68;4.00;;;;;;;12.73;82.94;102125.63;5008722;28;20054;-75
2023/06/05 00:47:39;;;;;;;7.70;4.20;;;;;;;12.75;82.62;102129.03;5007879;28;20559;-78
2023/06/05 00:50:07;;;;;;;6.55;3.90;;;;;;;12.70;83.32;102125.81;5007360;28;20032;-74
2023/06/05 00:52:33;;;;;;;7.22;3.55;;;;;;;12.58;83.75;102129.22;5013124;28;20022;-73
2023/06/05 00:54:59;;;;;;;9.77;4.25;;;;;;;12.58;83.75;102126.59;5012739;28;20095;-74
2023/06/05 00:57:27;;;;;;;6.90;4.10;;;;;;;12.50;84.15;102139.44;5008654;28;20055;-77
2023/06/05 00:59:53;;;;;;;8.25;3.90;;;;;;;12.47;84.34;102139.63;5011359;28;20441;-77
2023/06/05 01:02:19;;;;;;;7.10;4.10;;;;;;;12.47;84.72;102129.91;5011571;28;20030;-79
2023/06/05 01:04:46;;;;;;;9.40;4.18;;;;;;;12.44;84.76;102129.25;5012158;28;20072;-78
2023/06/05 01:07:14;;;;;;;5.93;3.72;;;;;;;12.42;84.59;102121.41;5011994;28;20087;-74
2023/06/05 01:09:40;;;;;;;8.90;4.60;;;;;;;12.36;85.50;102137.59;5012682;28;20018;-75
2023/06/05 01:12:20;;;;;;;5.88;4.18;;;;;;;12.33;85.37;102124.59;5008558;28;20040;-75
2023/06/05 01:14:58;;;;;;;9.27;4.47;;;;;;;12.32;85.33;102124.69;5009142;28;20570;-74
2023/06/05 01:17:25;;;;;;;8.07;4.70;;;;;;;12.29;85.69;102114.31;5010775;28;20030;-78
2023/06/05 01:19:52;;;;;;;9.52;4.85;;;;;;;12.22;85.92;102124.41;5011053;28;20109;-78
2023/06/05 01:22:17;;;;;;;9.60;4.15;;;;;;;12.19;85.93;102114.03;5011332;28;20030;-78
2023/06/05 01:24:47;;;;;;;4.95;4.15;;;;;;;12.14;86.17;102121.38;5009994;28;20033;-78
2023/06/05 01:27:22;;;;;;;7.70;4.40;;;;;;;12.19;86.30;102114.03;5020492;28;20022;-75
2023/06/05 01:29:56;;;;;;;9.18;4.10;;;;;;;12.17;86.39;102119.41;5011976;28;20061;-75
2023/06/05 01:32:53;;;;;;;10.82;4.85;;;;;;;12.03;86.64;102119.41;5009663;28;20390;-74
2023/06/05 01:35:20;;;;;;;10.25;4.43;;;;;;;12.02;87.04;102122.97;5011896;28;20029;-78
2023/06/05 01:37:49;;;;;;;6.38;4.75;;;;;;;11.96;87.67;102122.47;5012907;28;20045;-75
2023/06/05 01:40:19;;;;;;;7.63;4.50;;;;;;;11.90;88.13;102124.53;5011367;28;20044;-75
2023/06/05 01:42:46;;;;;;;6.80;4.75;;;;;;;11.89;88.24;102112.28;5012710;28;20106;-75
2023/06/05 01:45:13;;;;;;;7.32;4.82;;;;;;;11.84;88.60;102114.34;5012033;28;20082;-75
2023/06/05 01:47:39;;;;;;;7.72;4.72;;;;;;;11.78;88.72;102106.81;5008686;28;20056;-75
2023/06/05 01:50:05;;;;;;;8.45;4.63;;;;;;;11.76;88.74;102108.66;5004095;28;20096;-75
2023/06/05 01:52:31;;;;;;;8.38;4.85;;;;;;;11.70;88.82;102106.38;5009334;28;20026;-75
2023/06/05 01:55:00;;;;;;;7.28;5.22;;;;;;;11.68;89.32;102108.25;5013447;28;20124;-75
2023/06/05 01:57:27;;;;;;;7.63;5.18;;;;;;;11.60;90.05;102103.41;5019969;28;20113;-79
2023/06/05 01:59:53;;;;;;;7.82;4.95;;;;;;;11.66;89.64;102096.94;5011206;28;20022;-76
2023/06/05 02:02:23;;;;;;;7.40;5.10;;;;;;;11.65;90.05;102100.53;5010818;28;20021;-78
2023/06/05 02:04:53;;;;;;;7.30;5.82;;;;;;;11.56;90.08;102099.25;5000993;28;20034;-78
2023/06/05 02:07:21;;;;;;;8.95;5.32;;;;;;;11.49;90.55;102097.91;4999468;28;20481;-78
2023/06/05 02:09:47;;;;;;;11.10;5.97;;;;;;;11.54;90.61;102100.28;5010316;28;20475;-75
2023/06/05 02:12:15;;;;;;;7.72;5.35;;;;;;;11.50;90.91;102090.84;5011000;28;20044;-75
2023/06/05 02:14:44;;;;;;;8.90;5.78;;;;;;;11.46;90.53;102091.97;5009200;28;20068;-75
2023/06/05 02:17:13;;;;;;;9.50;5.63;;;;;;;11.42;91.27;102096.56;5009220;28;20118;-78
2023/06/05 02:19:43;;;;;;;7.13;5.60;;;;;;;11.38;91.61;102095.06;5009651;28;20048;-78
2023/06/05 02:22:09;;;;;;;9.88;5.82;;;;;;;11.34;91.93;102095.31;4995666;28;20065;-75
2023/06/05 02:24:34;;;;;;;10.30;6.05;;;;;;;11.30;91.96;102094.66;4994190;28;20446;-78
2023/06/05 02:27:05;;;;;;;6.57;5.72;;;;;;;11.27;92.52;102092.19;5024687;28;20040;-75
2023/06/05 02:29:32;;;;;;;8.73;6.07;;;;;;;11.19;92.73;102082.06;4991180;28;20139;-76
2023/06/05 02:31:58;;;;;;;10.52;6.20;;;;;;;11.18;92.62;102085.63;4990250;28;20037;-78
2023/06/05 02:34:24;;;;;;;8.63;6.13;;;;;;;11.13;93.19;102084.19;4991546;28;20022;-75
2023/06/05 02:36:50;;;;;;;10.35;6.80;;;;;;;11.09;93.73;102078.25;4990316;28;20548;-77
2023/06/05 02:39:16;;;;;;;11.38;6.72;;;;;;;11.06;93.43;102083.69;4996776;28;20030;-77
2023/06/05 02:41:44;;;;;;;11.43;6.65;;;;;;;11.04;94.05;102084.72;4990838;28;20113;-75
2023/06/05 02:44:09;;;;;;;9.52;7.00;;;;;;;11.02;93.85;102082.19;4990390;28;20050;-75
2023/06/05 02:46:34;;;;;;;10.20;7.03;;;;;;;11.02;94.21;102082.19;4989894;28;20393;-77
2023/06/05 02:49:00;;;;;;;8.43;6.82;;;;;;;11.03;94.10;102075.97;4990342;28;20047;-77
2023/06/05 02:51:25;;;;;;;9.20;7.22;;;;;;;10.98;94.06;102078.88;4992215;28;20050;-77
2023/06/05 02:53:50;;;;;;;9.45;6.70;;;;;;;10.98;94.24;102075.38;5007585;28;20494;-77
2023/06/05 02:56:16;;;;;;;11.00;7.10;;;;;;;10.91;94.72;102072.25;5020788;28;20032;-77
2023/06/05 02:58:43;;;;;;;9.10;6.70;;;;;;;10.92;94.67;102070.47;5029641;28;20048;-74
2023/06/05 03:01:10;;;;;;;8.07;7.18;;;;;;;10.83;95.06;102071.84;5019284;28;20509;-74
2023/06/05 03:03:36;;;;;;;11.90;8.07;;;;;;;10.80;95.32;102079.03;5009713;28;20502;-77
2023/06/05 03:06:04;;;;;;;11.85;7.75;;;;;;;10.74;95.60;102077.56;5011076;28;20030;-77
2023/06/05 03:08:38;;;;;;;10.73;7.55;;;;;;;10.77;95.96;102073.94;5011191;28;20029;-77
2023/06/05 03:11:04;;;;;;;11.98;7.30;;;;;;;10.74;95.83;102082.00;5008095;28;20036;-74
2023/06/05 03:13:30;;;;;;;9.82;7.57;;;;;;;10.68;96.48;102078.78;4992164;28;20475;-74
2023/06/05 03:15:57;;;;;;;8.32;7.53;;;;;;;10.66;96.50;102087.69;4991886;28;20029;-77
2023/06/05 03:18:25;;;;;;;11.70;7.82;;;;;;;10.63;96.85;102075.53;5006231;28;20033;-74
2023/06/05 03:20:54;;;;;;;10.43;7.97;;;;;;;10.60;96.68;102075.72;5008841;28;20068;-77
2023/06/05 03:23:23;;;;;;;11.75;7.82;;;;;;;10.64;96.74;102077.25;5009412;28;20387;-77
2023/06/05 03:25:51;;;;;;;11.43;7.53;;;;;;;10.60;97.18;102067.81;5015637;28;20382;-78
2023/06/05 03:28:18;;;;;;;8.73;7.80;;;;;;;10.58;97.04;102067.06;5009865;28;20033;-78
2023/06/05 03:30:46;;;;;;;11.48;7.90;;;;;;;10.58;97.29;102072.31;5006029;28;20025;-78
2023/06/05 03:33:14;;;;;;;9.68;7.80;;;;;;;10.51;97.43;102065.69;5001290;28;20484;-77
2023/06/05 03:35:42;;;;;;;10.10;7.97;;;;;;;10.50;97.92;102064.00;5008598;28;20025;-75
2023/06/05 03:38:09;;;;;;;9.68;8.23;;;;;;;10.49;98.27;102064.94;5007769;28;20064;-75
2023/06/05 03:40:34;;;;;;;10.40;8.45;;;;;;;10.45;97.95;102055.50;5008117;28;20058;-78
2023/06/05 03:43:00;;;;;;;10.95;8.23;;;;;;;10.41;98.60;102055.75;5009050;28;20494;-75
2023/06/05 03:45:28;;;;;;;10.70;8.27;;;;;;;10.39;98.35;102055.81;5005928;28;20049;-75
2023/06/05 03:47:54;;;;;;;9.65;8.60;;;;;;;10.38;98.80;102066.41;5004543;28;20478;-77
2023/06/05 03:50:23;;;;;;;12.32;9.18;;;;;;;10.40;98.87;102062.75;5009325;28;20080;-75
2023/06/05 03:52:52;;;;;;;11.77;8.52;;;;;;;10.40;99.14;102057.50;5008219;28;20021;-75
2023/06/05 03:55:19;;;;;;;11.55;8.90;;;;;;;10.37;99.01;102065.56;5014729;28;20067;-78
2023/06/05 03:57:45;;;;;;;14.57;9.55;;;;;;;10.33;99.66;102066.66;5018217;28;20045;-78
2023/06/05 04:00:11;;;;;;;13.30;9.40;;;;;;;10.32;100.00;102070.22;5007622;28;20038;-78
2023/06/05 04:02:38;;;;;;;10.90;9.50;;;;;;;10.61;99.60;102066.03;5005697;28;20033;-78
2023/06/05 04:05:04;;;;;;;11.73;8.30;;;;;;;11.30;96.36;102066.50;5020361;28;20037;-75
2023/06/05 04:07:30;;;;;;;11.15;8.48;;;;;;;11.55;94.48;102065.06;5008781;28;20029;-78
2023/06/05 04:09:55;;;;;;;10.88;8.30;;;;;;;12.20;91.31;102073.53;5010270;28;20033;-77
2023/06/05 04:12:21;;;;;;;15.77;7.82;;;;;;;12.55;88.52;102063.41;4991991;28;20077;-75
2023/06/05 04:14:46;;;;;;;10.10;7.93;;;;;;;12.90;86.57;102060.34;5009580;28;20033;-78
2023/06/05 04:17:13;;;;;;;13.02;7.63;;;;;;;13.08;84.16;102061.78;5007738;28;20021;-75
2023/06/05 04:19:39;;;;;;;8.57;7.45;;;;;;;13.11;83.42;102062.44;4998144;28;20454;-78
2023/06/05 04:22:05;;;;;;;9.85;7.53;;;;;;;12.74;84.46;102071.00;5006196;28;20026;-79
2023/06/05 04:24:30;;;;;;;10.40;7.93;;;;;;;12.43;85.51;102066.84;5008926;28;20044;-74
2023/06/05 04:26:56;;;;;;;10.18;7.97;;;;;;;12.02;88.10;102074.66;5028141;28;20021;-77
2023/06/05 04:29:22;;;;;;;10.35;7.85;;;;;;;11.82;89.08;102074.03;5032384;28;20116;-77
2023/06/05 04:31:47;;;;;;;10.00;8.00;;;;;;;11.66;90.15;102081.13;5013344;28;20034;-77
2023/06/05 04:34:13;;;;;;;9.52;8.13;;;;;;;11.51;90.92;102080.22;5011788;28;20389;-77
2023/06/05 04:36:40;;;;;;;10.02;8.65;;;;;;;11.49;91.82;102076.81;5005640;28;20405;-78
2023/06/05 04:39:07;;;;;;;10.20;8.60;;;;;;;11.39;92.36;102080.09;4993338;28;20042;-78
2023/06/05 04:41:32;;;;;;;11.77;9.18;;;;;;;11.34;93.05;102075.09;5008593;28;20030;-77
2023/06/05 04:43:59;;;;;;;14.80;9.45;;;;;;;11.20;93.18;102078.50;4994929;28;20050;-75
2023/06/05 04:46:25;;;;;;;12.95;9.18;;;;;;;11.20;93.82;102080.28;5011302;28;20034;-78
2023/06/05 04:48:54;;;;;;;17.20;9.25;;;;;;;11.27;94.07;102081.66;5010927;28;20076;-73
2023/06/05 04:51:20;;;;;;;15.85;10.15;;;;;;;11.14;94.49;102080.63;5008581;28;20030;-74
2023/06/05 04:53:50;;;;;;;18.55;10.73;;;;;;;11.08;95.07;102083.63;5009375;28;20547;-74
2023/06/05 04:56:16;;;;;;;12.90;9.73;;;;;;;11.13;95.35;102087.69;5012644;28;20458;-77
2023/06/05 04:58:41;;;;;;;15.27;10.70;;;;;;;11.06;95.23;102078.44;5012986;28;20049;-78
2023/06/05 05:01:08;;;;;;;13.27;11.13;;;;;;;11.04;95.45;102090.84;5011499;28;20057;-75
2023/06/05 05:03:33;;;;;;;12.25;10.80;;;;;;;11.06;95.83;102088.97;5009610;28;20112;-75
2023/06/05 05:06:02;;;;;;;14.70;11.30;;;;;;;11.06;95.61;102083.69;5011093;28;20561;-75
2023/06/05 05:08:27;;;;;;;14.13;10.88;;;;;;;11.05;95.82;102087.28;5008412;28;20034;-74
2023/06/05 05:10:53;;;;;;;14.65;10.95;;;;;;;11.06;96.09;102088.13;4994742;28;20073;-75
2023/06/05 05:13:19;;;;;;;12.70;10.63;;;;;;;11.03;96.33;102083.88;4993417;28;20452;-75
2023/06/05 05:15:46;;;;;;;15.63;11.63;;;;;;;11.11;96.39;102080.81;5003329;28;20064;-78
2023/06/05 05:18:12;;;;;;;12.57;10.90;;;;;;;11.13;95.73;102081.56;5010311;28;21735;-78
2023/06/05 05:20:38;;;;;;;14.20;11.38;;;;;;;11.16;95.95;102079.59;5012860;28;20032;-75
2023/06/05 05:23:07;;;;;;;14.45;11.52;;;;;;;11.14;96.04;102081.47;5010183;28;20478;-79
2023/06/05 05:25:33;;;;;;;12.45;11.13;;;;;;;11.19;96.08;102082.06;5013054;28;20025;-78
2023/06/05 05:27:58;;;;;;;13.30;11.05;;;;;;;11.21;95.94;102080.22;5032535;28;20029;-78
2023/06/05 05:30:23;;;;;;;15.90;12.38;;;;;;;11.24;95.88;102077.41;5014909;28;20399;-78
2023/06/05 05:32:49;;;;;;;15.10;12.23;;;;;;;11.22;95.33;102076.66;5009529;28;20367;-77
2023/06/05 05:35:14;;;;;;;20.98;11.50;;;;;;;11.34;95.39;102084.78;5011866;28;20054;-75
2023/06/05 05:37:40;;;;;;;16.27;12.18;;;;;;;11.38;94.97;102081.88;5011217;28;20095;-78
2023/06/05 05:40:06;;;;;;;13.50;11.57;;;;;;;11.46;94.32;102091.97;5003149;28;20105;-78
2023/06/05 05:42:32;;;;;;;12.68;11.45;;;;;;;11.51;94.23;102084.66;5010939;28;21439;-78
2023/06/05 05:44:57;;;;;;;17.70;14.82;;;;;;;11.55;93.90;102081.75;5009927;28;20053;-78
2023/06/05 05:47:23;;;;;;;16.58;13.15;;;;;;;11.59;94.17;102087.69;5009544;28;20026;-75
2023/06/05 05:49:48;;;;;;;13.60;12.13;;;;;;;11.67;93.53;102080.19;5011271;28;20089;-78
2023/06/05 05:52:14;;;;;;;16.17;11.68;;;;;;;11.69;93.06;102082.75;5005638;28;20041;-77
2023/06/05 05:54:39;;;;;;;13.40;11.65;;;;;;;11.73;92.25;102079.81;5008553;28;20453;-78
2023/06/05 05:57:04;;;;;;;12.98;11.57;;;;;;;11.81;92.14;102085.53;5011398;28;20495;-78
2023/06/05 05:59:30;;;;;;;16.80;11.85;;;;;;;11.79;91.13;102082.13;5008814;28;20065;-78
2023/06/05 06:01:58;;;;;;;13.50;11.93;;;;;;;11.88;91.68;102089.50;5009181;28;20079;-73
2023/06/05 06:04:23;;;;;;;14.18;11.68;;;;;;;11.88;91.14;102100.03;5010920;28;20033;-76
2023/06/05 06:06:52;;;;;;;13.40;11.95;;;;;;;12.01;91.35;102099.28;5009270;28;20034;-73
2023/06/05 06:09:18;;;;;;;14.52;12.10;;;;;;;12.05;90.52;102100.84;5003570;28;20033;-77
2023/06/05 06:11:44;;;;;;;13.40;11.45;;;;;;;12.15;90.53;102101.97;5009741;28;20033;-74
2023/06/05 06:14:10;;;;;;;16.98;11.80;;;;;;;12.15;88.96;102102.81;5009697;28;20021;-74
2023/06/05 06:16:37;;;;;;;21.40;12.35;;;;;;;12.27;89.15;102110.94;5011365;28;20025;-74
2023/06/05 06:19:03;;;;;;;14.70;12.25;;;;;;;12.28;87.88;102105.56;5010284;28;20030;-75
2023/06/05 06:21:29;;;;;;;18.75;12.48;;;;;;;12.32;87.75;102099.16;5009555;28;20052;-74
2023/06/05 06:23:54;;;;;;;17.80;12.77;;;;;;;12.37;87.60;102102.34;5010242;28;20026;-73
2023/06/05 06:26:21;;;;;;;15.30;11.93;;;;;;;12.48;88.22;102099.06;5010824;28;20030;-74
2023/06/05 06:28:46;;;;;;;12.90;11.57;;;;;;;12.54;86.71;102099.53;5027756;28;20017;-74
2023/06/05 06:31:12;;;;;;;19.80;11.80;;;;;;;12.54;86.08;102104.81;5017656;28;20522;-74
2023/06/05 06:33:37;;;;;;;16.13;11.18;;;;;;;12.58;85.52;102104.63;5009718;28;20026;-74
2023/06/05 06:36:03;;;;;;;15.32;11.70;;;;;;;12.63;85.93;102106.03;5009479;28;20018;-75
2023/06/05 06:38:31;;;;;;;15.55;12.38;;;;;;;12.74;86.54;102106.19;5010003;28;20490;-75
2023/06/05 06:40:58;;;;;;;18.98;11.88;;;;;;;12.81;85.04;102106.69;5009056;28;20029;-74
2023/06/05 06:43:23;;;;;;;16.42;11.70;;;;;;;12.81;84.91;102107.53;5009210;28;20525;-72
2023/06/05 06:45:50;;;;;;;13.82;11.65;;;;;;;12.92;85.96;102103.34;5010264;28;20076;-73
2023/06/05 06:48:17;;;;;;;15.70;12.38;;;;;;;12.93;85.13;102108.53;4990110;28;20052;-73
2023/06/05 06:50:42;;;;;;;13.30;11.98;;;;;;;12.96;84.10;102104.84;5006061;28;20041;-75
2023/06/05 06:53:08;;;;;;;16.70;12.25;;;;;;;13.00;84.22;102112.47;5009010;28;21045;-75
2023/06/05 06:55:33;;;;;;;15.48;12.40;;;;;;;13.10;83.15;102103.00;5008976;28;20101;-74
2023/06/05 06:57:59;;;;;;;12.48;11.18;;;;;;;13.23;83.75;102103.13;5008125;28;20057;-75
2023/06/05 07:00:25;;;;;;;15.30;11.88;;;;;;;13.31;83.75;102115.84;5010493;28;20022;-76
2023/06/05 07:02:50;;;;;;;14.63;11.77;;;;;;;13.43;83.50;102115.03;5009550;28;20036;-76
2023/06/05 07:05:15;;;;;;;19.65;12.02;;;;;;;13.62;82.60;102125.25;5008843;28;20022;-77
2023/06/05 07:07:41;;;;;;;16.02;12.15;;;;;;;13.79;80.95;102117.03;5009686;28;20099;-76
2023/06/05 07:10:07;;;;;;;13.60;11.32;;;;;;;13.89;79.56;102127.81;5009178;28;20022;-76
2023/06/05 07:12:33;;;;;;;14.32;11.13;;;;;;;14.02;78.73;102118.13;5009267;28;20022;-76
2023/06/05 07:14:58;;;;;;;14.82;11.55;;;;;;;14.13;78.57;102123.53;5010680;28;20691;-75
2023/06/05 07:17:24;;;;;;;14.60;11.35;;;;;;;14.35;78.67;102120.22;5009711;28;20124;-75
2023/06/05 07:19:49;;;;;;;15.15;11.43;;;;;;;14.60;77.50;102130.00;5010405;28;20030;-75
2023/06/05 07:22:15;;;;;;;12.48;11.00;;;;;;;14.86;76.45;102126.38;5008477;28;20029;-74
2023/06/05 07:24:42;;;;;;;12.23;10.48;;;;;;;15.04;73.69;102119.72;5009648;28;20068;-74
2023/06/05 07:27:08;;;;;;;14.27;10.35;;;;;;;15.19;73.63;102117.75;5010020;28;20029;-75
2023/06/05 07:29:33;;;;;;;14.48;11.55;;;;;;;15.32;72.95;102118.56;5008325;28;20076;-75
2023/06/05 07:32:06;;;;;;;14.52;11.32;;;;;;;15.46;71.71;102119.34;5008928;28;20026;-75
2023/06/05 07:34:31;;;;;;;17.02;13.52;;;;;;;15.48;72.16;102123.56;5008733;28;20030;-74
2023/06/05 07:37:02;;;;;;;14.98;10.90;;;;;;;15.77;71.60;102128.56;5006109;28;20021;-78
2023/06/05 07:39:28;;;;;;;15.77;10.55;;;;;;;15.91;70.57;102126.53;5008814;28;20030;-75
2023/06/05 07:41:53;;;;;;;15.70;10.38;;;;;;;16.08;69.45;102122.59;5008045;28;20034;-78
2023/06/05 07:44:23;;;;;;;13.45;10.75;;;;;;;16.06;68.43;102129.84;5008668;28;20487;-77
2023/06/05 07:46:50;;;;;;;15.82;10.43;;;;;;;16.25;68.96;102121.28;5008831;28;20070;-78
2023/06/05 07:49:18;;;;;;;13.32;10.05;;;;;;;16.46;67.95;102126.75;5007596;28;20408;-77
2023/06/05 07:51:46;;;;;;;16.55;10.18;;;;;;;16.67;66.71;102122.44;5007356;28;20620;-75
2023/06/05 07:54:13;;;;;;;10.82;9.50;;;;;;;16.92;65.01;102122.19;5008813;28;20028;-75
2023/06/05 07:56:39;;;;;;;13.80;9.73;;;;;;;17.10;65.49;102111.00;5007582;28;20029;-75
2023/06/05 07:59:05;;;;;;;13.05;9.75;;;;;;;17.21;64.41;102118.94;5007603;28;20033;-76
2023/06/05 08:01:38;;;;;;;13.63;9.70;;;;;;;17.11;63.67;102118.00;5007648;28;20029;-76
2023/06/05 08:04:06;;;;;;;14.88;9.27;;;;;;;17.31;63.46;102113.75;5007551;28;20022;-76
2023/06/05 08:06:32;;;;;;;12.07;9.45;;;;;;;17.32;63.68;102115.44;5007193;28;20103;-77
2023/06/05 08:09:01;;;;;;;12.35;9.07;;;;;;;17.46;63.97;102112.47;5005274;28;20472;-77
2023/06/05 08:11:28;;;;;;;12.38;8.85;;;;;;;17.76;63.06;102117.09;4990770;28;20026;-77
2023/06/05 08:13:54;;;;;;;11.13;8.68;;;;;;;17.89;61.32;102112.41;4989742;28;20500;-77
2023/06/05 08:16:25;;;;;;;11.75;9.40;;;;;;;18.02;61.36;102117.56;4990244;28;20253;-75
2023/06/05 08:18:50;;;;;;;11.77;8.38;;;;;;;18.24;59.97;102114.72;5008355;28;20077;-75
2023/06/05 08:21:16;;;;;;;19.20;8.63;;;;;;;18.35;59.29;102116.44;5008632;28;20032;-77
2023/06/05 08:23:42;;;;;;;10.43;7.93;;;;;;;18.48;59.22;102107.28;5000308;28;20363;-77
2023/06/05 08:26:10;;;;;;;14.45;8.32;;;;;;;18.44;58.43;102105.03;5009683;28;20121;-74
2023/06/05 08:28:40;;;;;;;11.77;8.45;;;;;;;18.57;57.79;102102.13;5007663;28;20080;-74
2023/06/05 08:31:09;;;;;;;11.27;7.53;;;;;;;18.61;57.39;102100.88;5010946;28;20103;-74
2023/06/05 08:33:35;;;;;;;11.82;7.50;;;;;;;18.95;57.07;102090.75;5025546;28;20041;-75
2023/06/05 08:36:01;;;;;;;12.07;7.93;;;;;;;18.95;56.67;102093.41;5008113;28;20025;-75
2023/06/05 08:38:26;;;;;;;10.80;7.45;;;;;;;19.17;56.99;102093.16;5000785;28;20479;-75
2023/06/05 08:40:59;;;;;;;9.90;7.28;;;;;;;19.42;57.06;102086.44;5006538;28;20038;-76
2023/06/05 08:43:25;;;;;;;10.25;6.93;;;;;;;19.73;56.83;102078.31;5005733;28;20485;-77
2023/06/05 08:45:52;;;;;;;13.13;7.90;;;;;;;19.73;54.18;102083.66;5005926;28;20030;-74
2023/06/05 08:48:20;;;;;;;13.55;8.32;;;;;;;19.49;54.39;102082.22;5006349;28;20109;-75
2023/06/05 08:50:47;;;;;;;11.30;7.82;;;;;;;19.64;55.45;102080.84;5009282;28;20044;-74
2023/06/05 08:53:16;;;;;;;12.32;7.65;;;;;;;19.84;54.82;102087.00;5008558;28;20105;-77
2023/06/05 08:55:43;;;;;;;10.38;7.20;;;;;;;19.88;54.14;102076.84;5008443;28;20048;-77
2023/06/05 08:58:11;;;;;;;10.10;7.90;;;;;;;19.76;53.12;102089.53;4991281;28;20034;-76
2023/06/05 09:00:36;;;;;;;17.30;8.43;;;;;;;19.78;53.56;102082.22;5007756;28;20474;-77
2023/06/05 09:03:02;;;;;;;15.30;7.38;;;;;;;19.66;53.07;102078.03;5007074;28;20022;-75
2023/06/05 09:05:28;;;;;;;11.55;7.55;;;;;;;19.91;53.18;102076.56;5008951;28;20083;-77
2023/06/05 09:07:53;;;;;;;11.52;7.22;;;;;;;19.92;53.53;102079.09;5008735;28;20485;-78
2023/06/05 09:10:24;;;;;;;15.63;7.80;;;;;;;20.09;53.65;102068.66;5008150;28;20026;-78
2023/06/05 09:12:55;;;;;;;13.98;7.03;;;;;;;20.33;52.83;102071.66;5011490;28;20494;-77
2023/06/05 09:15:24;;;;;;;9.18;6.00;;;;;;;20.44;52.74;102081.38;5008840;28;20021;-77
2023/06/05 09:18:12;;;;;;;12.68;6.65;;;;;;;20.32;52.66;102084.19;5010948;28;20025;-76
2023/06/05 09:20:48;;;;;;;9.13;5.93;;;;;;;20.42;52.88;102070.81;4997648;28;20109;-80
2023/06/05 09:23:24;;;;;;;12.05;7.00;;;;;;;20.48;51.92;102069.38;5005924;28;20113;-75
2023/06/05 09:25:50;;;;;;;10.73;6.88;;;;;;;20.34;51.65;102068.84;4998157;28;20328;-76
2023/06/05 09:28:16;;;;;;;7.78;6.50;;;;;;;20.38;52.43;102064.03;5011199;28;20033;-75
2023/06/05 09:30:59;;;;;;;9.52;6.22;;;;;;;20.67;53.51;102063.09;5009476;28;20564;-75
2023/06/05 09:33:27;;;;;;;11.98;6.50;;;;;;;20.87;52.23;102064.66;5026325;28;20029;-75
2023/06/05 09:36:12;;;;;;;12.48;6.45;;;;;;;20.82;53.00;102056.25;5026552;28;20020;-78
2023/06/05 09:38:40;;;;;;;9.73;6.63;;;;;;;20.87;50.73;102059.31;5011039;28;20022;-75
2023/06/05 09:41:08;;;;;;;13.30;6.40;;;;;;;20.77;50.82;102059.34;5011489;28;20025;-79
2023/06/05 09:43:36;;;;;;;10.30;5.95;;;;;;;20.93;50.74;102064.06;5011280;28;20056;-79
2023/06/05 09:46:12;;;;;;;11.07;5.88;;;;;;;20.97;49.95;102060.09;5010798;28;20033;-75
2023/06/05 09:48:39;;;;;;;12.02;5.43;;;;;;;21.17;50.48;102058.94;5012223;28;20038;-80
2023/06/05 09:51:08;;;;;;;9.25;6.13;;;;;;;21.19;49.87;102064.13;5010505;28;20026;-79
2023/06/05 09:53:35;;;;;;;9.15;5.55;;;;;;;21.57;50.17;102065.66;5011882;28;20095;-74
2023/06/05 09:56:02;;;;;;;10.13;5.60;;;;;;;21.86;49.45;102066.22;5011133;28;20109;-79
2023/06/05 09:58:28;;;;;;;6.72;5.53;;;;;;;22.07;49.61;102059.69;5010968;28;20021;-75
2023/06/05 10:00:56;;;;;;;12.32;5.85;;;;;;;22.13;49.00;102053.69;5008603;28;20042;-80
2023/06/05 10:03:21;;;;;;;8.30;5.00;;;;;;;21.90;49.30;102048.00;5007495;28;20033;-75
2023/06/05 10:05:47;;;;;;;10.02;5.22;;;;;;;22.04;48.65;102046.63;5007230;28;20026;-75
2023/06/05 10:08:17;;;;;;;12.52;5.45;;;;;;;22.03;49.53;102052.94;5009348;28;20018;-78
2023/06/05 10:10:43;;;;;;;16.70;6.00;;;;;;;22.19;48.67;102045.00;5008780;28;20386;-74
2023/06/05 10:13:10;;;;;;;13.23;5.63;;;;;;;22.25;47.29;102052.41;5008222;28;20025;-75
2023/06/05 10:15:38;;;;;;;8.82;5.65;;;;;;;22.23;48.48;102038.31;4996217;28;20414;-75
2023/06/05 10:18:05;;;;;;;9.93;5.25;;;;;;;22.32;48.35;102032.00;5011482;28;20013;-76
2023/06/05 10:20:31;;;;;;;7.75;4.93;;;;;;;22.52;48.56;102033.41;5021419;28;20079;-76
2023/06/05 10:22:57;;;;;;;13.63;6.40;;;;;;;22.48;47.50;102025.88;5011217;28;20025;-75
2023/06/05 10:25:23;;;;;;;10.90;7.43;;;;;;;22.48;47.53;102034.75;5012971;28;20036;-78
2023/06/05 10:28:01;;;;;;;8.48;5.50;;;;;;;22.72;47.84;102033.97;5006987;28;20030;-75
2023/06/05 10:30:52;;;;;;;10.48;5.65;;;;;;;22.85;47.17;102028.19;5008777;28;20390;-79
2023/06/05 10:33:46;;;;;;;9.65;5.57;;;;;;;22.87;48.33;102026.16;5020868;28;20049;-81
2023/06/05 10:36:55;;;;;;;11.82;5.38;;;;;;;22.89;46.89;102024.16;5006735;28;20037;-74
2023/06/05 10:39:24;;;;;;;11.57;5.22;;;;;;;22.97;46.84;102026.00;5008018;28;20084;-74
2023/06/05 10:41:50;;;;;;;9.40;5.60;;;;;;;23.10;45.67;102027.19;5023764;28;20667;-74
2023/06/05 10:44:17;;;;;;;9.05;5.43;;;;;;;23.13;46.51;102037.59;5022408;28;20061;-80
2023/06/05 10:46:42;;;;;;;9.73;4.85;;;;;;;23.16;44.58;102024.84;5029647;28;20029;-79
2023/06/05 10:49:08;;;;;;;8.88;4.72;;;;;;;23.07;45.29;102027.53;5029777;28;20536;-80
2023/06/05 10:51:39;;;;;;;11.20;5.07;;;;;;;23.23;44.65;102031.25;5021331;28;20037;-79
2023/06/05 10:54:06;;;;;;;10.57;5.07;;;;;;;23.12;45.14;102021.66;5029453;28;20025;-81
2023/06/05 10:56:50;;;;;;;9.27;5.07;;;;;;;23.34;45.88;102030.91;5013578;28;20560;-74
2023/06/05 10:59:17;;;;;;;9.55;5.22;;;;;;;23.12;45.50;102019.81;5020503;28;20033;-74
2023/06/05 11:01:43;;;;;;;14.32;6.22;;;;;;;22.80;46.14;102011.66;5009507;28;20100;-78
2023/06/05 11:04:11;;;;;;;12.15;6.55;;;;;;;22.93;46.37;102011.25;5025392;28;20026;-75
2023/06/05 11:06:37;;;;;;;8.77;5.70;;;;;;;22.91;45.78;102008.72;5019202;28;20091;-79
2023/06/05 11:09:12;;;;;;;11.85;5.03;;;;;;;23.11;46.10;102012.75;5028847;28;20516;-75
2023/06/05 11:12:02;;;;;;;11.52;5.00;;;;;;;23.52;46.59;102004.69;5030091;28;20393;-75
2023/06/05 11:14:47;;;;;;;8.68;5.07;;;;;;;23.51;45.78;102005.69;4995000;28;20543;-75
2023/06/05 11:17:30;;;;;;;10.05;4.95;;;;;;;23.87;45.72;101997.25;5007982;28;20494;-80
2023/06/05 11:19:56;;;;;;;11.73;5.57;;;;;;;24.08;44.06;102000.22;5027733;28;20060;-80